sensor_id;sensor_type;location;lat;lon;timestamp;P1;durP1;ratioP1;P2;durP2;ratioP2
39486;SDS011;25173;50.430;18.926;2022-09-02T00:01:51;11.25;;;3.50;;
39486;SDS011;25173;50.430;18.926;2022-09-02T00:04:52;4.75;;;2.80;;
39486;SDS011;25173;50.430;18.926;2022-09-02T00:07:53;4.45;;;2.70;;
39486;SDS011;25173;50.430;18.926;2022-09-02T00:10:54;6.10;;;2.67;;
39486;SDS011;25173;50.430;18.926;2022-09-02T00:13:55;3.33;;;2.58;;
39486;SDS011;25173;50.430;18.926;2022-09-02T00:16:56;4.90;;;2.28;;
39486;SDS011;25173;50.430;18.926;2022-09-02T00:19:59;5.78;;;2.90;;
39486;SDS011;25173;50.430;18.926;2022-09-02T00:23:00;3.45;;;2.50;;
39486;SDS011;25173;50.430;18.926;2022-09-02T00:26:01;4.00;;;2.53;;
39486;SDS011;25173;50.430;18.926;2022-09-02T00:29:02;3.65;;;2.47;;
39486;SDS011;25173;50.430;18.926;2022-09-02T00:32:04;6.45;;;2.95;;
39486;SDS011;25173;50.430;18.926;2022-09-02T00:35:04;6.13;;;2.33;;
39486;SDS011;25173;50.430;18.926;2022-09-02T00:38:06;5.35;;;3.08;;
39486;SDS011;25173;50.430;18.926;2022-09-02T00:41:07;3.45;;;2.60;;
39486;SDS011;25173;50.430;18.926;2022-09-02T00:44:11;4.00;;;2.47;;
39486;SDS011;25173;50.430;18.926;2022-09-02T00:47:15;3.75;;;2.25;;
39486;SDS011;25173;50.430;18.926;2022-09-02T00:50:18;7.40;;;3.00;;
39486;SDS011;25173;50.430;18.926;2022-09-02T00:53:23;4.35;;;2.30;;
39486;SDS011;25173;50.430;18.926;2022-09-02T00:56:26;4.03;;;2.78;;
39486;SDS011;25173;50.430;18.926;2022-09-02T00:59:42;4.68;;;2.53;;
39486;SDS011;25173;50.430;18.926;2022-09-02T01:02:58;3.45;;;2.65;;
39486;SDS011;25173;50.430;18.926;2022-09-02T01:06:04;4.63;;;2.30;;
39486;SDS011;25173;50.430;18.926;2022-09-02T01:09:08;5.30;;;2.38;;
39486;SDS011;25173;50.430;18.926;2022-09-02T01:12:11;4.80;;;2.20;;
39486;SDS011;25173;50.430;18.926;2022-09-02T01:15:14;2.80;;;2.17;;
39486;SDS011;25173;50.430;18.926;2022-09-02T01:18:18;5.75;;;2.45;;
39486;SDS011;25173;50.430;18.926;2022-09-02T01:21:23;4.35;;;2.47;;
39486;SDS011;25173;50.430;18.926;2022-09-02T01:24:25;3.78;;;2.35;;
39486;SDS011;25173;50.430;18.926;2022-09-02T01:27:29;4.63;;;3.38;;
39486;SDS011;25173;50.430;18.926;2022-09-02T01:30:30;4.20;;;2.13;;
39486;SDS011;25173;50.430;18.926;2022-09-02T01:33:31;5.25;;;2.75;;
39486;SDS011;25173;50.430;18.926;2022-09-02T01:36:34;3.60;;;2.17;;
39486;SDS011;25173;50.430;18.926;2022-09-02T01:39:37;2.95;;;2.30;;
39486;SDS011;25173;50.430;18.926;2022-09-02T01:42:39;4.03;;;2.88;;
39486;SDS011;25173;50.430;18.926;2022-09-02T01:45:41;3.83;;;2.65;;
39486;SDS011;25173;50.430;18.926;2022-09-02T01:48:45;5.32;;;2.85;;
39486;SDS011;25173;50.430;18.926;2022-09-02T01:51:46;5.45;;;2.58;;
39486;SDS011;25173;50.430;18.926;2022-09-02T01:54:47;3.28;;;2.05;;
39486;SDS011;25173;50.430;18.926;2022-09-02T01:57:48;3.58;;;2.33;;
39486;SDS011;25173;50.430;18.926;2022-09-02T02:00:49;5.00;;;2.10;;
39486;SDS011;25173;50.430;18.926;2022-09-02T02:03:50;6.93;;;2.45;;
39486;SDS011;25173;50.430;18.926;2022-09-02T02:06:55;5.95;;;2.33;;
39486;SDS011;25173;50.430;18.926;2022-09-02T02:09:56;5.32;;;2.85;;
39486;SDS011;25173;50.430;18.926;2022-09-02T02:12:59;4.05;;;2.28;;
39486;SDS011;25173;50.430;18.926;2022-09-02T02:16:05;3.47;;;2.20;;
39486;SDS011;25173;50.430;18.926;2022-09-02T02:19:05;4.88;;;2.03;;
39486;SDS011;25173;50.430;18.926;2022-09-02T02:22:06;2.65;;;1.85;;
39486;SDS011;25173;50.430;18.926;2022-09-02T02:25:07;5.15;;;2.95;;
39486;SDS011;25173;50.430;18.926;2022-09-02T02:28:08;5.20;;;2.63;;
39486;SDS011;25173;50.430;18.926;2022-09-02T02:31:14;3.00;;;2.05;;
39486;SDS011;25173;50.430;18.926;2022-09-02T02:34:15;7.50;;;2.72;;
39486;SDS011;25173;50.430;18.926;2022-09-02T02:37:17;3.90;;;2.28;;
39486;SDS011;25173;50.430;18.926;2022-09-02T02:40:19;6.95;;;2.75;;
39486;SDS011;25173;50.430;18.926;2022-09-02T02:43:23;5.30;;;2.45;;
39486;SDS011;25173;50.430;18.926;2022-09-02T02:46:26;3.53;;;2.42;;
39486;SDS011;25173;50.430;18.926;2022-09-02T02:49:26;7.22;;;2.33;;
39486;SDS011;25173;50.430;18.926;2022-09-02T02:52:27;4.43;;;2.38;;
39486;SDS011;25173;50.430;18.926;2022-09-02T02:55:28;5.45;;;2.40;;
39486;SDS011;25173;50.430;18.926;2022-09-02T02:58:30;5.72;;;2.58;;
39486;SDS011;25173;50.430;18.926;2022-09-02T03:01:31;4.13;;;2.28;;
39486;SDS011;25173;50.430;18.926;2022-09-02T03:04:33;3.72;;;2.30;;
39486;SDS011;25173;50.430;18.926;2022-09-02T03:07:34;3.33;;;2.40;;
39486;SDS011;25173;50.430;18.926;2022-09-02T03:10:35;4.15;;;2.50;;
39486;SDS011;25173;50.430;18.926;2022-09-02T03:13:37;3.72;;;2.42;;
39486;SDS011;25173;50.430;18.926;2022-09-02T03:16:38;5.88;;;1.98;;
39486;SDS011;25173;50.430;18.926;2022-09-02T03:19:39;3.28;;;2.10;;
39486;SDS011;25173;50.430;18.926;2022-09-02T03:22:40;5.38;;;2.42;;
39486;SDS011;25173;50.430;18.926;2022-09-02T03:25:43;2.60;;;2.05;;
39486;SDS011;25173;50.430;18.926;2022-09-02T03:28:54;4.70;;;2.78;;
39486;SDS011;25173;50.430;18.926;2022-09-02T03:31:56;2.85;;;2.05;;
39486;SDS011;25173;50.430;18.926;2022-09-02T03:34:56;4.10;;;2.55;;
39486;SDS011;25173;50.430;18.926;2022-09-02T03:37:57;11.88;;;2.75;;
39486;SDS011;25173;50.430;18.926;2022-09-02T03:40:59;6.10;;;2.38;;
39486;SDS011;25173;50.430;18.926;2022-09-02T03:44:00;13.27;;;2.50;;
39486;SDS011;25173;50.430;18.926;2022-09-02T03:47:02;12.52;;;2.80;;
39486;SDS011;25173;50.430;18.926;2022-09-02T03:50:03;62.70;;;6.35;;
39486;SDS011;25173;50.430;18.926;2022-09-02T03:53:06;25.27;;;4.15;;
39486;SDS011;25173;50.430;18.926;2022-09-02T03:56:08;27.23;;;4.38;;
39486;SDS011;25173;50.430;18.926;2022-09-02T03:59:15;24.20;;;3.35;;
39486;SDS011;25173;50.430;18.926;2022-09-02T04:02:16;11.65;;;2.90;;
39486;SDS011;25173;50.430;18.926;2022-09-02T04:05:17;11.75;;;2.83;;
39486;SDS011;25173;50.430;18.926;2022-09-02T04:08:18;16.02;;;4.25;;
39486;SDS011;25173;50.430;18.926;2022-09-02T04:11:20;10.45;;;2.90;;
39486;SDS011;25173;50.430;18.926;2022-09-02T04:14:24;5.38;;;2.97;;
39486;SDS011;25173;50.430;18.926;2022-09-02T04:17:27;12.07;;;3.10;;
39486;SDS011;25173;50.430;18.926;2022-09-02T04:20:29;11.52;;;3.33;;
39486;SDS011;25173;50.430;18.926;2022-09-02T04:23:30;7.28;;;2.38;;
39486;SDS011;25173;50.430;18.926;2022-09-02T04:26:31;11.38;;;2.92;;
39486;SDS011;25173;50.430;18.926;2022-09-02T04:29:33;6.47;;;3.00;;
39486;SDS011;25173;50.430;18.926;2022-09-02T04:32:34;6.07;;;2.67;;
39486;SDS011;25173;50.430;18.926;2022-09-02T04:35:41;12.73;;;2.50;;
39486;SDS011;25173;50.430;18.926;2022-09-02T04:38:46;8.30;;;2.58;;
39486;SDS011;25173;50.430;18.926;2022-09-02T04:41:54;8.55;;;2.35;;
39486;SDS011;25173;50.430;18.926;2022-09-02T04:44:56;7.25;;;2.17;;
39486;SDS011;25173;50.430;18.926;2022-09-02T04:47:58;4.60;;;1.88;;
39486;SDS011;25173;50.430;18.926;2022-09-02T04:51:02;5.53;;;2.33;;
39486;SDS011;25173;50.430;18.926;2022-09-02T04:54:07;7.75;;;2.30;;
39486;SDS011;25173;50.430;18.926;2022-09-02T04:57:09;8.60;;;3.53;;
39486;SDS011;25173;50.430;18.926;2022-09-02T05:00:10;5.85;;;3.03;;
39486;SDS011;25173;50.430;18.926;2022-09-02T05:03:11;6.65;;;3.60;;
39486;SDS011;25173;50.430;18.926;2022-09-02T05:06:16;9.07;;;3.28;;
39486;SDS011;25173;50.430;18.926;2022-09-02T05:09:19;3.38;;;3.08;;
39486;SDS011;25173;50.430;18.926;2022-09-02T05:12:27;2.88;;;2.53;;
39486;SDS011;25173;50.430;18.926;2022-09-02T05:15:32;5.47;;;3.13;;
39486;SDS011;25173;50.430;18.926;2022-09-02T05:18:33;17.83;;;3.92;;
39486;SDS011;25173;50.430;18.926;2022-09-02T05:21:38;7.22;;;2.70;;
39486;SDS011;25173;50.430;18.926;2022-09-02T05:24:41;9.23;;;3.40;;
39486;SDS011;25173;50.430;18.926;2022-09-02T05:27:45;6.43;;;2.90;;
39486;SDS011;25173;50.430;18.926;2022-09-02T05:30:46;3.38;;;2.45;;
39486;SDS011;25173;50.430;18.926;2022-09-02T05:33:49;8.43;;;2.60;;
39486;SDS011;25173;50.430;18.926;2022-09-02T05:36:53;6.03;;;2.83;;
39486;SDS011;25173;50.430;18.926;2022-09-02T05:39:54;4.80;;;2.63;;
39486;SDS011;25173;50.430;18.926;2022-09-02T05:42:55;6.32;;;2.22;;
39486;SDS011;25173;50.430;18.926;2022-09-02T05:45:56;5.63;;;2.35;;
39486;SDS011;25173;50.430;18.926;2022-09-02T05:48:59;3.05;;;2.17;;
39486;SDS011;25173;50.430;18.926;2022-09-02T05:52:12;9.82;;;2.17;;
39486;SDS011;25173;50.430;18.926;2022-09-02T05:55:19;4.72;;;2.80;;
39486;SDS011;25173;50.430;18.926;2022-09-02T05:58:19;9.32;;;2.97;;
39486;SDS011;25173;50.430;18.926;2022-09-02T06:01:20;9.00;;;3.08;;
39486;SDS011;25173;50.430;18.926;2022-09-02T06:04:21;6.28;;;3.05;;
39486;SDS011;25173;50.430;18.926;2022-09-02T06:07:22;2.35;;;2.10;;
39486;SDS011;25173;50.430;18.926;2022-09-02T06:10:25;8.27;;;2.10;;
39486;SDS011;25173;50.430;18.926;2022-09-02T06:13:27;4.30;;;2.05;;
39486;SDS011;25173;50.430;18.926;2022-09-02T06:16:33;5.80;;;2.22;;
39486;SDS011;25173;50.430;18.926;2022-09-02T06:19:35;6.93;;;2.50;;
39486;SDS011;25173;50.430;18.926;2022-09-02T06:22:37;8.13;;;2.17;;
39486;SDS011;25173;50.430;18.926;2022-09-02T06:25:38;5.72;;;1.70;;
39486;SDS011;25173;50.430;18.926;2022-09-02T06:28:41;6.13;;;2.05;;
39486;SDS011;25173;50.430;18.926;2022-09-02T06:31:44;4.00;;;1.92;;
39486;SDS011;25173;50.430;18.926;2022-09-02T06:34:46;4.38;;;2.30;;
39486;SDS011;25173;50.430;18.926;2022-09-02T06:37:49;5.30;;;2.10;;
39486;SDS011;25173;50.430;18.926;2022-09-02T06:40:51;8.95;;;2.40;;
39486;SDS011;25173;50.430;18.926;2022-09-02T06:44:13;9.82;;;2.00;;
39486;SDS011;25173;50.430;18.926;2022-09-02T06:47:16;4.95;;;1.80;;
39486;SDS011;25173;50.430;18.926;2022-09-02T06:50:19;6.50;;;2.22;;
39486;SDS011;25173;50.430;18.926;2022-09-02T06:53:20;7.18;;;1.88;;
39486;SDS011;25173;50.430;18.926;2022-09-02T06:56:22;7.07;;;1.90;;
39486;SDS011;25173;50.430;18.926;2022-09-02T06:59:23;2.42;;;1.67;;
39486;SDS011;25173;50.430;18.926;2022-09-02T07:02:30;4.68;;;2.15;;
39486;SDS011;25173;50.430;18.926;2022-09-02T07:05:31;9.40;;;2.22;;
39486;SDS011;25173;50.430;18.926;2022-09-02T07:08:33;3.50;;;1.95;;
39486;SDS011;25173;50.430;18.926;2022-09-02T07:11:36;5.97;;;1.80;;
39486;SDS011;25173;50.430;18.926;2022-09-02T07:14:38;4.45;;;1.65;;
39486;SDS011;25173;50.430;18.926;2022-09-02T07:17:43;4.30;;;2.28;;
39486;SDS011;25173;50.430;18.926;2022-09-02T07:21:08;8.13;;;1.70;;
39486;SDS011;25173;50.430;18.926;2022-09-02T07:24:19;3.63;;;1.80;;
39486;SDS011;25173;50.430;18.926;2022-09-02T07:27:20;5.38;;;1.83;;
39486;SDS011;25173;50.430;18.926;2022-09-02T07:30:23;4.35;;;2.50;;
39486;SDS011;25173;50.430;18.926;2022-09-02T07:33:31;6.40;;;1.83;;
39486;SDS011;25173;50.430;18.926;2022-09-02T07:36:33;3.80;;;1.90;;
39486;SDS011;25173;50.430;18.926;2022-09-02T07:39:37;4.77;;;2.17;;
39486;SDS011;25173;50.430;18.926;2022-09-02T07:42:38;4.20;;;1.58;;
39486;SDS011;25173;50.430;18.926;2022-09-02T07:45:38;4.25;;;1.52;;
39486;SDS011;25173;50.430;18.926;2022-09-02T07:48:42;2.97;;;1.38;;
39486;SDS011;25173;50.430;18.926;2022-09-02T07:51:44;2.53;;;1.40;;
39486;SDS011;25173;50.430;18.926;2022-09-02T07:54:51;4.82;;;1.65;;
39486;SDS011;25173;50.430;18.926;2022-09-02T07:57:52;4.82;;;1.40;;
39486;SDS011;25173;50.430;18.926;2022-09-02T08:00:53;3.75;;;1.20;;
39486;SDS011;25173;50.430;18.926;2022-09-02T08:03:57;1.50;;;0.77;;
39486;SDS011;25173;50.430;18.926;2022-09-02T08:07:02;2.67;;;0.98;;
39486;SDS011;25173;50.430;18.926;2022-09-02T08:10:03;1.40;;;1.08;;
39486;SDS011;25173;50.430;18.926;2022-09-02T08:13:07;3.88;;;1.40;;
39486;SDS011;25173;50.430;18.926;2022-09-02T08:16:09;3.00;;;1.30;;
39486;SDS011;25173;50.430;18.926;2022-09-02T08:19:10;0.98;;;0.90;;
39486;SDS011;25173;50.430;18.926;2022-09-02T08:22:11;0.82;;;0.70;;
39486;SDS011;25173;50.430;18.926;2022-09-02T08:25:12;2.15;;;1.10;;
39486;SDS011;25173;50.430;18.926;2022-09-02T08:28:13;1.08;;;0.85;;
39486;SDS011;25173;50.430;18.926;2022-09-02T08:31:14;1.52;;;0.98;;
39486;SDS011;25173;50.430;18.926;2022-09-02T08:34:15;2.25;;;0.88;;
39486;SDS011;25173;50.430;18.926;2022-09-02T08:37:15;3.30;;;0.93;;
39486;SDS011;25173;50.430;18.926;2022-09-02T08:40:19;3.55;;;1.38;;
39486;SDS011;25173;50.430;18.926;2022-09-02T08:46:29;2.38;;;1.35;;
39486;SDS011;25173;50.430;18.926;2022-09-02T08:49:33;3.03;;;0.95;;
39486;SDS011;25173;50.430;18.926;2022-09-02T08:52:42;1.58;;;1.08;;
39486;SDS011;25173;50.430;18.926;2022-09-02T08:55:50;2.38;;;0.63;;
39486;SDS011;25173;50.430;18.926;2022-09-02T08:58:54;5.97;;;0.77;;
39486;SDS011;25173;50.430;18.926;2022-09-02T09:08:54;1.15;;;0.65;;
39486;SDS011;25173;50.430;18.926;2022-09-02T09:18:37;2.00;;;0.60;;
39486;SDS011;25173;50.430;18.926;2022-09-02T09:21:41;4.82;;;0.57;;
39486;SDS011;25173;50.430;18.926;2022-09-02T09:24:47;3.22;;;0.50;;
39486;SDS011;25173;50.430;18.926;2022-09-02T09:27:49;1.42;;;0.75;;
39486;SDS011;25173;50.430;18.926;2022-09-02T09:30:50;0.77;;;0.55;;
39486;SDS011;25173;50.430;18.926;2022-09-02T09:37:03;0.68;;;0.50;;
39486;SDS011;25173;50.430;18.926;2022-09-02T09:43:22;0.38;;;0.38;;
39486;SDS011;25173;50.430;18.926;2022-09-02T09:46:30;0.63;;;0.60;;
39486;SDS011;25173;50.430;18.926;2022-09-02T09:49:34;2.47;;;0.40;;
39486;SDS011;25173;50.430;18.926;2022-09-02T09:52:35;7.50;;;0.90;;
39486;SDS011;25173;50.430;18.926;2022-09-02T09:55:44;1.55;;;0.50;;
39486;SDS011;25173;50.430;18.926;2022-09-02T09:58:49;1.05;;;0.60;;
39486;SDS011;25173;50.430;18.926;2022-09-02T10:01:50;4.72;;;0.75;;
39486;SDS011;25173;50.430;18.926;2022-09-02T10:04:51;2.72;;;0.80;;
39486;SDS011;25173;50.430;18.926;2022-09-02T10:08:03;0.77;;;0.43;;
39486;SDS011;25173;50.430;18.926;2022-09-02T10:11:29;2.70;;;0.47;;
39486;SDS011;25173;50.430;18.926;2022-09-02T10:14:33;1.98;;;0.50;;
39486;SDS011;25173;50.430;18.926;2022-09-02T10:21:50;1.05;;;0.60;;
39486;SDS011;25173;50.430;18.926;2022-09-02T10:38:16;6.72;;;0.85;;
39486;SDS011;25173;50.430;18.926;2022-09-02T10:41:44;3.47;;;0.68;;
39486;SDS011;25173;50.430;18.926;2022-09-02T10:44:48;0.40;;;0.40;;
39486;SDS011;25173;50.430;18.926;2022-09-02T10:51:20;0.55;;;0.40;;
39486;SDS011;25173;50.430;18.926;2022-09-02T10:54:35;2.20;;;0.50;;
39486;SDS011;25173;50.430;18.926;2022-09-02T10:57:51;2.20;;;0.38;;
39486;SDS011;25173;50.430;18.926;2022-09-02T11:00:59;3.00;;;0.70;;
39486;SDS011;25173;50.430;18.926;2022-09-02T11:07:47;2.35;;;0.95;;
39486;SDS011;25173;50.430;18.926;2022-09-02T11:17:08;2.60;;;0.70;;
39486;SDS011;25173;50.430;18.926;2022-09-02T11:24:43;4.05;;;0.60;;
39486;SDS011;25173;50.430;18.926;2022-09-02T11:31:02;6.38;;;0.63;;
39486;SDS011;25173;50.430;18.926;2022-09-02T11:34:17;4.18;;;0.40;;
39486;SDS011;25173;50.430;18.926;2022-09-02T11:37:27;0.57;;;0.57;;
39486;SDS011;25173;50.430;18.926;2022-09-02T11:40:58;2.17;;;0.90;;
39486;SDS011;25173;50.430;18.926;2022-09-02T11:44:04;2.67;;;1.63;;
39486;SDS011;25173;50.430;18.926;2022-09-02T11:50:36;0.77;;;0.50;;
39486;SDS011;25173;50.430;18.926;2022-09-02T11:53:44;2.45;;;0.60;;
39486;SDS011;25173;50.430;18.926;2022-09-02T11:56:48;1.33;;;0.60;;
39486;SDS011;25173;50.430;18.926;2022-09-02T12:02:55;0.82;;;0.70;;
39486;SDS011;25173;50.430;18.926;2022-09-02T12:06:06;0.65;;;0.50;;
39486;SDS011;25173;50.430;18.926;2022-09-02T12:09:09;0.98;;;0.85;;
39486;SDS011;25173;50.430;18.926;2022-09-02T12:15:45;3.70;;;1.27;;
39486;SDS011;25173;50.430;18.926;2022-09-02T12:28:25;3.95;;;0.90;;
39486;SDS011;25173;50.430;18.926;2022-09-02T12:31:39;1.07;;;0.80;;
39486;SDS011;25173;50.430;18.926;2022-09-02T12:34:51;3.80;;;1.10;;
39486;SDS011;25173;50.430;18.926;2022-09-02T12:37:56;1.33;;;0.70;;
39486;SDS011;25173;50.430;18.926;2022-09-02T12:41:18;1.13;;;0.60;;
39486;SDS011;25173;50.430;18.926;2022-09-02T12:44:27;0.63;;;0.47;;
39486;SDS011;25173;50.430;18.926;2022-09-02T12:50:58;1.42;;;0.77;;
39486;SDS011;25173;50.430;18.926;2022-09-02T12:53:59;4.82;;;0.70;;
39486;SDS011;25173;50.430;18.926;2022-09-02T12:57:01;1.50;;;0.77;;
39486;SDS011;25173;50.430;18.926;2022-09-02T13:00:03;1.42;;;0.57;;
39486;SDS011;25173;50.430;18.926;2022-09-02T13:10:12;3.25;;;0.70;;
39486;SDS011;25173;50.430;18.926;2022-09-02T13:13:52;3.28;;;1.10;;
39486;SDS011;25173;50.430;18.926;2022-09-02T13:20:42;4.03;;;1.00;;
39486;SDS011;25173;50.430;18.926;2022-09-02T13:34:04;2.63;;;0.63;;
39486;SDS011;25173;50.430;18.926;2022-09-02T13:40:34;5.30;;;0.80;;
39486;SDS011;25173;50.430;18.926;2022-09-02T13:43:35;0.50;;;0.50;;
39486;SDS011;25173;50.430;18.926;2022-09-02T13:46:43;1.50;;;0.45;;
39486;SDS011;25173;50.430;18.926;2022-09-02T13:49:46;2.25;;;0.52;;
39486;SDS011;25173;50.430;18.926;2022-09-02T13:52:57;4.13;;;0.82;;
39486;SDS011;25173;50.430;18.926;2022-09-02T13:56:00;4.10;;;0.85;;
39486;SDS011;25173;50.430;18.926;2022-09-02T13:59:04;1.85;;;0.82;;
39486;SDS011;25173;50.430;18.926;2022-09-02T14:05:36;2.63;;;0.73;;
39486;SDS011;25173;50.430;18.926;2022-09-02T14:08:40;0.77;;;0.50;;
39486;SDS011;25173;50.430;18.926;2022-09-02T14:11:41;3.80;;;0.60;;
39486;SDS011;25173;50.430;18.926;2022-09-02T14:14:45;3.25;;;0.80;;
39486;SDS011;25173;50.430;18.926;2022-09-02T14:18:04;4.20;;;0.82;;
39486;SDS011;25173;50.430;18.926;2022-09-02T14:21:16;2.55;;;0.80;;
39486;SDS011;25173;50.430;18.926;2022-09-02T14:24:19;0.85;;;0.63;;
39486;SDS011;25173;50.430;18.926;2022-09-02T14:27:27;4.80;;;0.85;;
39486;SDS011;25173;50.430;18.926;2022-09-02T14:30:32;0.77;;;0.70;;
39486;SDS011;25173;50.430;18.926;2022-09-02T14:33:43;4.50;;;1.10;;
39486;SDS011;25173;50.430;18.926;2022-09-02T14:36:44;1.85;;;1.30;;
39486;SDS011;25173;50.430;18.926;2022-09-02T14:39:52;2.90;;;0.90;;
39486;SDS011;25173;50.430;18.926;2022-09-02T14:43:10;2.55;;;0.70;;
39486;SDS011;25173;50.430;18.926;2022-09-02T14:46:21;1.23;;;0.65;;
39486;SDS011;25173;50.430;18.926;2022-09-02T14:52:29;5.78;;;1.02;;
39486;SDS011;25173;50.430;18.926;2022-09-02T14:58:44;4.28;;;0.90;;
39486;SDS011;25173;50.430;18.926;2022-09-02T15:01:45;3.05;;;0.60;;
39486;SDS011;25173;50.430;18.926;2022-09-02T15:04:48;2.25;;;0.80;;
39486;SDS011;25173;50.430;18.926;2022-09-02T15:07:50;1.27;;;0.52;;
39486;SDS011;25173;50.430;18.926;2022-09-02T15:10:58;1.95;;;0.70;;
39486;SDS011;25173;50.430;18.926;2022-09-02T15:14:00;3.17;;;0.50;;
39486;SDS011;25173;50.430;18.926;2022-09-02T15:17:00;2.10;;;0.75;;
39486;SDS011;25173;50.430;18.926;2022-09-02T15:20:02;6.97;;;1.00;;
39486;SDS011;25173;50.430;18.926;2022-09-02T15:23:05;1.85;;;0.60;;
39486;SDS011;25173;50.430;18.926;2022-09-02T15:26:06;3.50;;;0.82;;
39486;SDS011;25173;50.430;18.926;2022-09-02T15:29:07;6.13;;;1.42;;
39486;SDS011;25173;50.430;18.926;2022-09-02T15:32:08;1.30;;;0.73;;
39486;SDS011;25173;50.430;18.926;2022-09-02T15:35:08;5.35;;;0.85;;
39486;SDS011;25173;50.430;18.926;2022-09-02T15:38:09;3.72;;;0.68;;
39486;SDS011;25173;50.430;18.926;2022-09-02T15:41:13;3.58;;;0.80;;
39486;SDS011;25173;50.430;18.926;2022-09-02T15:44:21;1.80;;;0.70;;
39486;SDS011;25173;50.430;18.926;2022-09-02T15:47:26;5.25;;;0.68;;
39486;SDS011;25173;50.430;18.926;2022-09-02T15:50:30;1.30;;;0.80;;
39486;SDS011;25173;50.430;18.926;2022-09-02T15:53:33;2.05;;;0.82;;
39486;SDS011;25173;50.430;18.926;2022-09-02T15:56:34;2.60;;;0.80;;
39486;SDS011;25173;50.430;18.926;2022-09-02T15:59:36;2.00;;;0.68;;
39486;SDS011;25173;50.430;18.926;2022-09-02T16:02:37;3.47;;;1.10;;
39486;SDS011;25173;50.430;18.926;2022-09-02T16:05:37;3.90;;;1.13;;
39486;SDS011;25173;50.430;18.926;2022-09-02T16:08:38;7.38;;;1.40;;
39486;SDS011;25173;50.430;18.926;2022-09-02T16:11:40;1.85;;;1.05;;
39486;SDS011;25173;50.430;18.926;2022-09-02T16:14:46;4.63;;;1.23;;
39486;SDS011;25173;50.430;18.926;2022-09-02T16:17:50;4.68;;;1.40;;
39486;SDS011;25173;50.430;18.926;2022-09-02T16:20:50;3.22;;;1.48;;
39486;SDS011;25173;50.430;18.926;2022-09-02T16:23:51;2.35;;;1.20;;
39486;SDS011;25173;50.430;18.926;2022-09-02T16:26:51;6.40;;;1.88;;
39486;SDS011;25173;50.430;18.926;2022-09-02T16:29:52;10.18;;;1.52;;
39486;SDS011;25173;50.430;18.926;2022-09-02T16:32:53;6.22;;;1.60;;
39486;SDS011;25173;50.430;18.926;2022-09-02T16:35:53;2.85;;;1.20;;
39486;SDS011;25173;50.430;18.926;2022-09-02T16:38:54;3.75;;;1.20;;
39486;SDS011;25173;50.430;18.926;2022-09-02T16:41:55;6.05;;;1.17;;
39486;SDS011;25173;50.430;18.926;2022-09-02T16:44:57;3.97;;;1.00;;
39486;SDS011;25173;50.430;18.926;2022-09-02T16:47:57;5.45;;;1.17;;
39486;SDS011;25173;50.430;18.926;2022-09-02T16:51:02;2.42;;;1.15;;
39486;SDS011;25173;50.430;18.926;2022-09-02T16:54:03;2.00;;;1.08;;
39486;SDS011;25173;50.430;18.926;2022-09-02T16:57:04;3.20;;;1.02;;
39486;SDS011;25173;50.430;18.926;2022-09-02T17:00:05;1.75;;;0.90;;
39486;SDS011;25173;50.430;18.926;2022-09-02T17:03:07;2.22;;;1.20;;
39486;SDS011;25173;50.430;18.926;2022-09-02T17:06:09;3.72;;;1.00;;
39486;SDS011;25173;50.430;18.926;2022-09-02T17:09:09;2.90;;;1.20;;
39486;SDS011;25173;50.430;18.926;2022-09-02T17:12:10;1.65;;;0.93;;
39486;SDS011;25173;50.430;18.926;2022-09-02T17:15:11;2.90;;;1.20;;
39486;SDS011;25173;50.430;18.926;2022-09-02T17:18:11;4.70;;;1.20;;
39486;SDS011;25173;50.430;18.926;2022-09-02T17:24:13;2.65;;;1.20;;
39486;SDS011;25173;50.430;18.926;2022-09-02T17:27:14;4.20;;;1.08;;
39486;SDS011;25173;50.430;18.926;2022-09-02T17:30:15;2.72;;;1.00;;
39486;SDS011;25173;50.430;18.926;2022-09-02T17:33:16;3.60;;;1.33;;
39486;SDS011;25173;50.430;18.926;2022-09-02T17:36:17;12.68;;;1.67;;
39486;SDS011;25173;50.430;18.926;2022-09-02T17:39:18;2.28;;;1.52;;
39486;SDS011;25173;50.430;18.926;2022-09-02T17:42:19;5.20;;;1.38;;
39486;SDS011;25173;50.430;18.926;2022-09-02T17:45:23;2.20;;;1.40;;
39486;SDS011;25173;50.430;18.926;2022-09-02T17:48:23;1.90;;;1.30;;
39486;SDS011;25173;50.430;18.926;2022-09-02T17:51:24;2.58;;;1.77;;
39486;SDS011;25173;50.430;18.926;2022-09-02T17:54:25;5.13;;;2.28;;
39486;SDS011;25173;50.430;18.926;2022-09-02T17:57:48;7.38;;;2.42;;
39486;SDS011;25173;50.430;18.926;2022-09-02T18:01:00;4.30;;;2.20;;
39486;SDS011;25173;50.430;18.926;2022-09-02T18:11:01;4.28;;;2.28;;
39486;SDS011;25173;50.430;18.926;2022-09-02T18:23:50;3.55;;;2.55;;
39486;SDS011;25173;50.430;18.926;2022-09-02T18:27:08;5.25;;;3.00;;
39486;SDS011;25173;50.430;18.926;2022-09-02T18:30:17;12.52;;;4.38;;
39486;SDS011;25173;50.430;18.926;2022-09-02T18:43:39;6.50;;;3.72;;
39486;SDS011;25173;50.430;18.926;2022-09-02T18:47:01;7.50;;;3.72;;
39486;SDS011;25173;50.430;18.926;2022-09-02T18:50:06;4.40;;;2.90;;
39486;SDS011;25173;50.430;18.926;2022-09-02T18:53:08;6.50;;;2.30;;
39486;SDS011;25173;50.430;18.926;2022-09-02T18:56:11;3.65;;;2.30;;
39486;SDS011;25173;50.430;18.926;2022-09-02T18:59:13;6.45;;;3.13;;
39486;SDS011;25173;50.430;18.926;2022-09-02T19:02:33;4.03;;;2.70;;
39486;SDS011;25173;50.430;18.926;2022-09-02T19:05:54;4.00;;;2.60;;
39486;SDS011;25173;50.430;18.926;2022-09-02T19:08:56;4.22;;;2.25;;
39486;SDS011;25173;50.430;18.926;2022-09-02T19:11:59;4.88;;;2.30;;
39486;SDS011;25173;50.430;18.926;2022-09-02T19:15:05;3.70;;;2.40;;
39486;SDS011;25173;50.430;18.926;2022-09-02T19:18:08;5.90;;;2.10;;
39486;SDS011;25173;50.430;18.926;2022-09-02T19:21:10;13.15;;;2.80;;
39486;SDS011;25173;50.430;18.926;2022-09-02T19:24:17;4.25;;;2.38;;
39486;SDS011;25173;50.430;18.926;2022-09-02T19:27:26;4.47;;;3.13;;
39486;SDS011;25173;50.430;18.926;2022-09-02T19:30:31;7.45;;;2.75;;
39486;SDS011;25173;50.430;18.926;2022-09-02T19:33:35;5.03;;;2.50;;
39486;SDS011;25173;50.430;18.926;2022-09-02T19:36:36;4.40;;;2.38;;
39486;SDS011;25173;50.430;18.926;2022-09-02T19:39:41;5.30;;;2.53;;
39486;SDS011;25173;50.430;18.926;2022-09-02T19:42:42;4.45;;;2.55;;
39486;SDS011;25173;50.430;18.926;2022-09-02T19:45:43;4.38;;;2.83;;
39486;SDS011;25173;50.430;18.926;2022-09-02T19:48:44;4.65;;;2.63;;
39486;SDS011;25173;50.430;18.926;2022-09-02T19:51:47;3.38;;;2.22;;
39486;SDS011;25173;50.430;18.926;2022-09-02T19:54:47;2.85;;;2.00;;
39486;SDS011;25173;50.430;18.926;2022-09-02T19:57:48;5.38;;;2.60;;
39486;SDS011;25173;50.430;18.926;2022-09-02T20:00:51;11.07;;;3.25;;
39486;SDS011;25173;50.430;18.926;2022-09-02T20:03:53;6.85;;;3.10;;
39486;SDS011;25173;50.430;18.926;2022-09-02T20:06:53;4.28;;;2.70;;
39486;SDS011;25173;50.430;18.926;2022-09-02T20:09:54;3.75;;;2.45;;
39486;SDS011;25173;50.430;18.926;2022-09-02T20:12:56;3.83;;;2.38;;
39486;SDS011;25173;50.430;18.926;2022-09-02T20:15:58;3.63;;;1.70;;
39486;SDS011;25173;50.430;18.926;2022-09-02T20:19:00;4.38;;;2.22;;
39486;SDS011;25173;50.430;18.926;2022-09-02T20:22:02;3.88;;;2.72;;
39486;SDS011;25173;50.430;18.926;2022-09-02T20:25:03;7.03;;;2.72;;
39486;SDS011;25173;50.430;18.926;2022-09-02T20:31:30;3.35;;;2.53;;
39486;SDS011;25173;50.430;18.926;2022-09-02T20:51:32;3.42;;;2.15;;
39486;SDS011;25173;50.430;18.926;2022-09-02T20:54:39;3.30;;;2.13;;
39486;SDS011;25173;50.430;18.926;2022-09-02T20:57:54;4.45;;;2.17;;
39486;SDS011;25173;50.430;18.926;2022-09-02T21:01:18;4.07;;;2.30;;